sensor_id;sensor_type;location;lat;lon;timestamp;pressure;altitude;pressure_sealevel;temperature;humidity
71149;BME280;59072;42.144;25.200;2022-11-15T00:01:49;100848.31;;;8.04;100.00
71149;BME280;59072;42.144;25.200;2022-11-15T00:04:15;100844.28;;;8.08;100.00
71149;BME280;59072;42.144;25.200;2022-11-15T00:06:41;100843.34;;;7.86;100.00
71149;BME280;59072;42.144;25.200;2022-11-15T00:09:06;100839.25;;;7.98;100.00
71149;BME280;59072;42.144;25.200;2022-11-15T00:11:31;100835.50;;;7.93;100.00
71149;BME280;59072;42.144;25.200;2022-11-15T00:13:57;100848.78;;;7.93;100.00
71149;BME280;59072;42.144;25.200;2022-11-15T00:16:24;100851.53;;;7.99;100.00
71149;BME280;59072;42.144;25.200;2022-11-15T00:18:50;100844.19;;;8.01;100.00
71149;BME280;59072;42.144;25.200;2022-11-15T00:21:16;100841.97;;;7.90;100.00
71149;BME280;59072;42.144;25.200;2022-11-15T00:23:42;100847.59;;;8.10;100.00
71149;BME280;59072;42.144;25.200;2022-11-15T00:26:12;100839.34;;;8.05;100.00
71149;BME280;59072;42.144;25.200;2022-11-15T00:28:37;100843.19;;;8.02;100.00
71149;BME280;59072;42.144;25.200;2022-11-15T00:31:06;100835.22;;;8.02;100.00
71149;BME280;59072;42.144;25.200;2022-11-15T00:33:33;100834.03;;;8.05;100.00
71149;BME280;59072;42.144;25.200;2022-11-15T00:36:06;100822.03;;;8.09;100.00
71149;BME280;59072;42.144;25.200;2022-11-15T00:38:33;100824.88;;;8.08;100.00
71149;BME280;59072;42.144;25.200;2022-11-15T00:41:00;100805.19;;;7.87;100.00
71149;BME280;59072;42.144;25.200;2022-11-15T00:43:26;100814.88;;;8.10;100.00
71149;BME280;59072;42.144;25.200;2022-11-15T00:45:51;100814.97;;;8.01;100.00
71149;BME280;59072;42.144;25.200;2022-11-15T00:48:17;100793.19;;;7.91;100.00
71149;BME280;59072;42.144;25.200;2022-11-15T00:50:42;100804.44;;;7.93;100.00
71149;BME280;59072;42.144;25.200;2022-11-15T00:53:07;100802.63;;;7.79;100.00
71149;BME280;59072;42.144;25.200;2022-11-15T00:55:33;100809.22;;;7.83;100.00
71149;BME280;59072;42.144;25.200;2022-11-15T00:57:58;100796.75;;;7.98;100.00
71149;BME280;59072;42.144;25.200;2022-11-15T01:00:24;100773.84;;;7.68;100.00
71149;BME280;59072;42.144;25.200;2022-11-15T01:02:49;100783.09;;;7.72;100.00
71149;BME280;59072;42.144;25.200;2022-11-15T01:05:15;100780.81;;;7.69;100.00
71149;BME280;59072;42.144;25.200;2022-11-15T01:07:40;100790.50;;;7.76;100.00
71149;BME280;59072;42.144;25.200;2022-11-15T01:10:06;100792.72;;;8.02;100.00
71149;BME280;59072;42.144;25.200;2022-11-15T01:12:32;100793.78;;;8.23;100.00
71149;BME280;59072;42.144;25.200;2022-11-15T01:14:57;100791.97;;;8.09;100.00
71149;BME280;59072;42.144;25.200;2022-11-15T01:17:23;100791.63;;;8.12;100.00
71149;BME280;59072;42.144;25.200;2022-11-15T01:19:49;100772.00;;;8.13;100.00
71149;BME280;59072;42.144;25.200;2022-11-15T01:22:14;100797.81;;;8.19;100.00
71149;BME280;59072;42.144;25.200;2022-11-15T01:24:40;100789.59;;;8.14;100.00
71149;BME280;59072;42.144;25.200;2022-11-15T01:27:05;100797.38;;;8.30;100.00
71149;BME280;59072;42.144;25.200;2022-11-15T01:29:31;100786.63;;;8.38;100.00
71149;BME280;59072;42.144;25.200;2022-11-15T01:31:56;100795.34;;;8.32;100.00
71149;BME280;59072;42.144;25.200;2022-11-15T01:34:22;100767.59;;;8.20;100.00
71149;BME280;59072;42.144;25.200;2022-11-15T01:36:47;100789.00;;;8.33;100.00
71149;BME280;59072;42.144;25.200;2022-11-15T01:39:12;100783.69;;;8.33;100.00
71149;BME280;59072;42.144;25.200;2022-11-15T01:41:38;100779.28;;;8.40;100.00
71149;BME280;59072;42.144;25.200;2022-11-15T01:44:37;100775.78;;;8.55;100.00
71149;BME280;59072;42.144;25.200;2022-11-15T01:47:11;100778.28;;;8.56;100.00
71149;BME280;59072;42.144;25.200;2022-11-15T01:49:42;100770.09;;;8.58;100.00
71149;BME280;59072;42.144;25.200;2022-11-15T01:52:19;100771.22;;;8.49;100.00
71149;BME280;59072;42.144;25.200;2022-11-15T01:54:48;100779.09;;;8.57;100.00
71149;BME280;59072;42.144;25.200;2022-11-15T01:57:15;100752.53;;;8.27;100.00
71149;BME280;59072;42.144;25.200;2022-11-15T01:59:43;100773.44;;;8.30;100.00
71149;BME280;59072;42.144;25.200;2022-11-15T02:02:10;100781.41;;;8.30;100.00
71149;BME280;59072;42.144;25.200;2022-11-15T02:04:40;100777.63;;;8.39;100.00
71149;BME280;59072;42.144;25.200;2022-11-15T02:07:08;100773.13;;;8.55;100.00
71149;BME280;59072;42.144;25.200;2022-11-15T02:09:36;100757.84;;;8.27;100.00
71149;BME280;59072;42.144;25.200;2022-11-15T02:12:02;100774.88;;;8.48;100.00
71149;BME280;59072;42.144;25.200;2022-11-15T02:14:29;100761.41;;;8.49;100.00
71149;BME280;59072;42.144;25.200;2022-11-15T02:33:04;100765.72;;;8.35;100.00
71149;BME280;59072;42.144;25.200;2022-11-15T02:38:40;100766.19;;;8.75;100.00
71149;BME280;59072;42.144;25.200;2022-11-15T02:41:15;100741.88;;;8.57;100.00
71149;BME280;59072;42.144;25.200;2022-11-15T02:43:46;100766.63;;;8.79;100.00
71149;BME280;59072;42.144;25.200;2022-11-15T02:46:41;100768.97;;;8.89;100.00
71149;BME280;59072;42.144;25.200;2022-11-15T02:49:29;100769.81;;;8.89;100.00
71149;BME280;59072;42.144;25.200;2022-11-15T02:51:56;100753.63;;;8.91;100.00
71149;BME280;59072;42.144;25.200;2022-11-15T02:54:28;100744.91;;;8.75;100.00
71149;BME280;59072;42.144;25.200;2022-11-15T02:56:57;100755.25;;;8.85;100.00
71149;BME280;59072;42.144;25.200;2022-11-15T03:04:52;100760.31;;;9.01;100.00
71149;BME280;59072;42.144;25.200;2022-11-15T03:07:23;100754.53;;;8.76;100.00
71149;BME280;59072;42.144;25.200;2022-11-15T03:09:52;100757.19;;;8.98;100.00
71149;BME280;59072;42.144;25.200;2022-11-15T03:12:30;100752.63;;;8.92;100.00
71149;BME280;59072;42.144;25.200;2022-11-15T03:17:34;100753.75;;;9.04;100.00
71149;BME280;59072;42.144;25.200;2022-11-15T03:20:03;100741.38;;;8.90;100.00
71149;BME280;59072;42.144;25.200;2022-11-15T03:22:35;100754.13;;;9.01;100.00
71149;BME280;59072;42.144;25.200;2022-11-15T03:25:04;100731.72;;;8.89;100.00
71149;BME280;59072;42.144;25.200;2022-11-15T03:27:35;100731.34;;;8.92;100.00
71149;BME280;59072;42.144;25.200;2022-11-15T03:30:05;100729.69;;;8.91;100.00
71149;BME280;59072;42.144;25.200;2022-11-15T03:32:36;100746.69;;;8.90;100.00
71149;BME280;59072;42.144;25.200;2022-11-15T03:37:37;100745.78;;;8.82;100.00
71149;BME280;59072;42.144;25.200;2022-11-15T03:40:06;100734.47;;;8.95;100.00
71149;BME280;59072;42.144;25.200;2022-11-15T03:42:41;100718.06;;;8.92;100.00
71149;BME280;59072;42.144;25.200;2022-11-15T03:45:15;100734.47;;;8.95;100.00
71149;BME280;59072;42.144;25.200;2022-11-15T03:47:47;100722.59;;;8.98;100.00
71149;BME280;59072;42.144;25.200;2022-11-15T03:50:19;100736.13;;;9.03;100.00
71149;BME280;59072;42.144;25.200;2022-11-15T03:52:47;100720.22;;;8.81;100.00
71149;BME280;59072;42.144;25.200;2022-11-15T03:55:17;100707.69;;;8.75;100.00
71149;BME280;59072;42.144;25.200;2022-11-15T03:57:43;100732.81;;;8.94;100.00
71149;BME280;59072;42.144;25.200;2022-11-15T04:00:10;100734.47;;;8.95;100.00
71149;BME280;59072;42.144;25.200;2022-11-15T04:02:36;100711.06;;;8.91;100.00
71149;BME280;59072;42.144;25.200;2022-11-15T04:05:02;100722.97;;;8.95;100.00
71149;BME280;59072;42.144;25.200;2022-11-15T04:07:27;100703.97;;;9.19;100.00
71149;BME280;59072;42.144;25.200;2022-11-15T04:09:53;100726.38;;;9.10;100.00
71149;BME280;59072;42.144;25.200;2022-11-15T04:12:37;100730.44;;;9.06;100.00
71149;BME280;59072;42.144;25.200;2022-11-15T04:15:13;100728.09;;;9.18;100.00
71149;BME280;59072;42.144;25.200;2022-11-15T04:17:47;100723.78;;;9.17;100.00
71149;BME280;59072;42.144;25.200;2022-11-15T04:20:16;100723.59;;;9.18;100.00
71149;BME280;59072;42.144;25.200;2022-11-15T04:23:02;100698.63;;;9.19;100.00
71149;BME280;59072;42.144;25.200;2022-11-15T04:25:50;100715.97;;;9.43;100.00
71149;BME280;59072;42.144;25.200;2022-11-15T04:28:16;100694.25;;;9.40;100.00
71149;BME280;59072;42.144;25.200;2022-11-15T04:30:41;100714.94;;;9.38;100.00
71149;BME280;59072;42.144;25.200;2022-11-15T04:33:07;100692.38;;;9.05;100.00
71149;BME280;59072;42.144;25.200;2022-11-15T04:35:32;100700.88;;;9.22;100.00
71149;BME280;59072;42.144;25.200;2022-11-15T04:37:58;100714.09;;;9.37;100.00
71149;BME280;59072;42.144;25.200;2022-11-15T04:40:24;100718.41;;;9.38;100.00
71149;BME280;59072;42.144;25.200;2022-11-15T04:42:49;100709.28;;;9.19;100.00
71149;BME280;59072;42.144;25.200;2022-11-15T04:45:15;100713.22;;;9.02;100.00
71149;BME280;59072;42.144;25.200;2022-11-15T04:47:43;100714.47;;;9.06;100.00
71149;BME280;59072;42.144;25.200;2022-11-15T04:50:08;100703.06;;;9.12;100.00
71149;BME280;59072;42.144;25.200;2022-11-15T04:52:34;100704.78;;;9.20;100.00
71149;BME280;59072;42.144;25.200;2022-11-15T04:54:59;100711.28;;;9.17;100.00
71149;BME280;59072;42.144;25.200;2022-11-15T04:57:25;100683.78;;;9.03;100.00
71149;BME280;59072;42.144;25.200;2022-11-15T04:59:50;100700.59;;;9.11;100.00
71149;BME280;59072;42.144;25.200;2022-11-15T05:02:15;100705.97;;;9.17;100.00
71149;BME280;59072;42.144;25.200;2022-11-15T05:04:41;100708.56;;;9.39;100.00
71149;BME280;59072;42.144;25.200;2022-11-15T05:07:06;100713.31;;;9.43;100.00
71149;BME280;59072;42.144;25.200;2022-11-15T05:09:32;100699.03;;;9.58;100.00
71149;BME280;59072;42.144;25.200;2022-11-15T05:11:57;100688.50;;;9.36;100.00
71149;BME280;59072;42.144;25.200;2022-11-15T05:14:22;100716.19;;;9.42;100.00
71149;BME280;59072;42.144;25.200;2022-11-15T05:16:48;100708.25;;;9.55;100.00
71149;BME280;59072;42.144;25.200;2022-11-15T05:19:13;100717.59;;;9.38;100.00
71149;BME280;59072;42.144;25.200;2022-11-15T05:21:39;100706.31;;;9.36;100.00
71149;BME280;59072;42.144;25.200;2022-11-15T05:24:05;100709.22;;;9.48;100.00
71149;BME280;59072;42.144;25.200;2022-11-15T05:26:30;100695.44;;;9.37;100.00
71149;BME280;59072;42.144;25.200;2022-11-15T05:28:57;100704.78;;;9.20;100.00
71149;BME280;59072;42.144;25.200;2022-11-15T05:31:24;100715.44;;;9.27;100.00
71149;BME280;59072;42.144;25.200;2022-11-15T05:33:50;100706.69;;;9.33;100.00
71149;BME280;59072;42.144;25.200;2022-11-15T05:36:27;100706.06;;;9.31;100.00
71149;BME280;59072;42.144;25.200;2022-11-15T05:38:54;100695.41;;;9.31;100.00
71149;BME280;59072;42.144;25.200;2022-11-15T05:41:24;100720.91;;;9.47;100.00
71149;BME280;59072;42.144;25.200;2022-11-15T05:43:51;100712.28;;;9.38;100.00
71149;BME280;59072;42.144;25.200;2022-11-15T05:46:17;100712.34;;;9.51;100.00
71149;BME280;59072;42.144;25.200;2022-11-15T05:48:45;100711.09;;;9.47;100.00
71149;BME280;59072;42.144;25.200;2022-11-15T05:51:14;100724.16;;;9.42;100.00
71149;BME280;59072;42.144;25.200;2022-11-15T05:53:43;100724.25;;;9.55;100.00
71149;BME280;59072;42.144;25.200;2022-11-15T05:56:09;100725.66;;;9.51;100.00
71149;BME280;59072;42.144;25.200;2022-11-15T05:58:36;100717.22;;;9.48;100.00
71149;BME280;59072;42.144;25.200;2022-11-15T06:01:02;100723.78;;;9.52;100.00
71149;BME280;59072;42.144;25.200;2022-11-15T06:03:28;100707.25;;;9.21;100.00
71149;BME280;59072;42.144;25.200;2022-11-15T06:05:53;100724.16;;;9.42;100.00
71149;BME280;59072;42.144;25.200;2022-11-15T06:08:19;100687.63;;;9.29;100.00
71149;BME280;59072;42.144;25.200;2022-11-15T06:10:44;100734.53;;;9.65;99.50
71149;BME280;59072;42.144;25.200;2022-11-15T06:13:10;100717.66;;;9.51;98.52
71149;BME280;59072;42.144;25.200;2022-11-15T06:15:35;100717.78;;;9.36;99.45
71149;BME280;59072;42.144;25.200;2022-11-15T06:18:01;100718.78;;;9.35;99.95
71149;BME280;59072;42.144;25.200;2022-11-15T06:20:28;100737.34;;;9.50;99.05
71149;BME280;59072;42.144;25.200;2022-11-15T06:23:02;100735.19;;;9.39;100.00
71149;BME280;59072;42.144;25.200;2022-11-15T06:25:29;100730.84;;;9.31;99.27
71149;BME280;59072;42.144;25.200;2022-11-15T06:27:56;100736.31;;;9.23;100.00
71149;BME280;59072;42.144;25.200;2022-11-15T06:30:23;100719.03;;;9.12;99.90
71149;BME280;59072;42.144;25.200;2022-11-15T06:32:48;100740.22;;;9.27;99.96
71149;BME280;59072;42.144;25.200;2022-11-15T06:35:14;100715.97;;;9.15;98.82
71149;BME280;59072;42.144;25.200;2022-11-15T06:37:40;100735.16;;;9.32;96.64
71149;BME280;59072;42.144;25.200;2022-11-15T06:40:07;100743.22;;;9.17;97.71
71149;BME280;59072;42.144;25.200;2022-11-15T06:42:33;100726.13;;;9.33;96.18
71149;BME280;59072;42.144;25.200;2022-11-15T06:44:59;100732.78;;;9.44;94.95
71149;BME280;59072;42.144;25.200;2022-11-15T06:47:24;100735.78;;;9.34;95.36
71149;BME280;59072;42.144;25.200;2022-11-15T06:49:49;100730.47;;;9.34;94.09
71149;BME280;59072;42.144;25.200;2022-11-15T06:52:15;100738.00;;;9.31;93.29
71149;BME280;59072;42.144;25.200;2022-11-15T06:54:43;100740.06;;;9.35;93.21
71149;BME280;59072;42.144;25.200;2022-11-15T06:57:09;100717.53;;;9.31;93.33
71149;BME280;59072;42.144;25.200;2022-11-15T06:59:34;100732.53;;;9.39;94.37
71149;BME280;59072;42.144;25.200;2022-11-15T07:01:59;100733.16;;;9.41;94.54
71149;BME280;59072;42.144;25.200;2022-11-15T07:04:25;100722.59;;;9.54;92.31
71149;BME280;59072;42.144;25.200;2022-11-15T07:06:50;100722.81;;;9.59;93.58
71149;BME280;59072;42.144;25.200;2022-11-15T07:09:16;100709.66;;;9.51;93.97
71149;BME280;59072;42.144;25.200;2022-11-15T07:11:41;100700.94;;;9.64;94.18
71149;BME280;59072;42.144;25.200;2022-11-15T07:14:06;100696.03;;;9.68;93.89
71149;BME280;59072;42.144;25.200;2022-11-15T07:16:32;100700.56;;;9.74;91.69
71149;BME280;59072;42.144;25.200;2022-11-15T07:18:57;100706.34;;;9.84;93.06
71149;BME280;59072;42.144;25.200;2022-11-15T07:21:23;100719.50;;;9.92;91.89
71149;BME280;59072;42.144;25.200;2022-11-15T07:23:48;100718.25;;;9.81;91.39
71149;BME280;59072;42.144;25.200;2022-11-15T07:26:14;100689.31;;;9.78;91.40
71149;BME280;59072;42.144;25.200;2022-11-15T07:28:39;100702.84;;;9.77;89.14
71149;BME280;59072;42.144;25.200;2022-11-15T07:31:06;100717.44;;;9.88;87.59
71149;BME280;59072;42.144;25.200;2022-11-15T07:33:32;100725.97;;;9.76;89.37
71149;BME280;59072;42.144;25.200;2022-11-15T07:35:59;100724.50;;;9.67;89.09
71149;BME280;59072;42.144;25.200;2022-11-15T07:38:26;100725.97;;;9.70;90.97
71149;BME280;59072;42.144;25.200;2022-11-15T07:41:01;100723.16;;;9.84;89.99
71149;BME280;59072;42.144;25.200;2022-11-15T07:43:27;100724.53;;;9.74;89.85
71149;BME280;59072;42.144;25.200;2022-11-15T07:45:53;100725.25;;;9.89;88.12
71149;BME280;59072;42.144;25.200;2022-11-15T07:48:19;100696.31;;;9.79;88.17
71149;BME280;59072;42.144;25.200;2022-11-15T07:50:45;100708.03;;;9.92;87.70
71149;BME280;59072;42.144;25.200;2022-11-15T07:53:10;100722.59;;;9.96;88.41
71149;BME280;59072;42.144;25.200;2022-11-15T07:55:36;100721.63;;;10.03;88.54
71149;BME280;59072;42.144;25.200;2022-11-15T07:58:10;100706.81;;;10.01;88.53
71149;BME280;59072;42.144;25.200;2022-11-15T08:00:36;100703.94;;;9.96;88.11
71149;BME280;59072;42.144;25.200;2022-11-15T08:03:07;100719.63;;;10.25;88.26
71149;BME280;59072;42.144;25.200;2022-11-15T08:05:34;100693.81;;;10.26;88.33
71149;BME280;59072;42.144;25.200;2022-11-15T08:08:00;100706.50;;;10.24;87.76
71149;BME280;59072;42.144;25.200;2022-11-15T08:10:26;100722.19;;;10.54;86.46
71149;BME280;59072;42.144;25.200;2022-11-15T08:13:04;100720.56;;;10.66;84.58
71149;BME280;59072;42.144;25.200;2022-11-15T08:15:31;100703.72;;;10.45;85.69
71149;BME280;59072;42.144;25.200;2022-11-15T08:17:58;100709.50;;;10.69;83.88
71149;BME280;59072;42.144;25.200;2022-11-15T08:20:25;100715.66;;;10.63;84.67
71149;BME280;59072;42.144;25.200;2022-11-15T08:22:51;100714.84;;;10.82;83.41
71149;BME280;59072;42.144;25.200;2022-11-15T08:25:16;100706.44;;;10.85;82.93
71149;BME280;59072;42.144;25.200;2022-11-15T08:27:42;100704.78;;;10.84;85.21
71149;BME280;59072;42.144;25.200;2022-11-15T08:30:08;100701.69;;;10.68;86.53
71149;BME280;59072;42.144;25.200;2022-11-15T08:32:34;100703.97;;;10.91;85.04
71149;BME280;59072;42.144;25.200;2022-11-15T08:34:59;100707.25;;;11.26;82.88
71149;BME280;59072;42.144;25.200;2022-11-15T08:37:24;100691.41;;;11.11;84.56
71149;BME280;59072;42.144;25.200;2022-11-15T08:39:50;100693.28;;;11.11;84.49
71149;BME280;59072;42.144;25.200;2022-11-15T08:42:15;100705.97;;;11.42;83.48
71149;BME280;59072;42.144;25.200;2022-11-15T08:44:41;100690.78;;;11.36;82.70
71149;BME280;59072;42.144;25.200;2022-11-15T08:47:10;100696.88;;;11.56;82.32
71149;BME280;59072;42.144;25.200;2022-11-15T08:49:36;100685.31;;;11.76;79.84
71149;BME280;59072;42.144;25.200;2022-11-15T08:52:01;100676.25;;;11.83;79.50
71149;BME280;59072;42.144;25.200;2022-11-15T08:54:27;100686.34;;;11.81;80.08
71149;BME280;59072;42.144;25.200;2022-11-15T08:56:52;100679.81;;;11.64;82.07
71149;BME280;59072;42.144;25.200;2022-11-15T08:59:18;100686.13;;;11.90;79.50
71149;BME280;59072;42.144;25.200;2022-11-15T09:01:43;100679.75;;;11.91;80.69
71149;BME280;59072;42.144;25.200;2022-11-15T09:04:09;100671.22;;;12.14;78.02
71149;BME280;59072;42.144;25.200;2022-11-15T09:06:34;100648.03;;;12.01;78.66
71149;BME280;59072;42.144;25.200;2022-11-15T09:09:01;100644.53;;;12.00;78.55
71149;BME280;59072;42.144;25.200;2022-11-15T09:11:26;100636.09;;;12.03;78.47
71149;BME280;59072;42.144;25.200;2022-11-15T09:13:52;100652.91;;;12.11;78.33
71149;BME280;59072;42.144;25.200;2022-11-15T09:16:17;100654.81;;;12.35;77.41
71149;BME280;59072;42.144;25.200;2022-11-15T09:18:43;100628.72;;;11.99;80.26
71149;BME280;59072;42.144;25.200;2022-11-15T09:21:09;100647.56;;;12.11;80.53
71149;BME280;59072;42.144;25.200;2022-11-15T09:23:34;100632.81;;;12.33;79.79
71149;BME280;59072;42.144;25.200;2022-11-15T09:26:01;100639.44;;;12.56;79.35
71149;BME280;59072;42.144;25.200;2022-11-15T09:28:28;100631.69;;;12.48;76.85
71149;BME280;59072;42.144;25.200;2022-11-15T09:30:58;100622.31;;;12.38;76.66
71149;BME280;59072;42.144;25.200;2022-11-15T09:33:24;100627.19;;;12.41;76.81
71149;BME280;59072;42.144;25.200;2022-11-15T09:35:50;100603.66;;;12.50;78.39
71149;BME280;59072;42.144;25.200;2022-11-15T09:38:16;100620.03;;;12.67;77.26
71149;BME280;59072;42.144;25.200;2022-11-15T09:40:42;100596.81;;;12.61;77.39
71149;BME280;59072;42.144;25.200;2022-11-15T09:46:05;100612.28;;;13.02;77.28
71149;BME280;59072;42.144;25.200;2022-11-15T09:48:47;100601.34;;;13.22;76.13
71149;BME280;59072;42.144;25.200;2022-11-15T09:51:24;100607.13;;;13.01;75.57
71149;BME280;59072;42.144;25.200;2022-11-15T09:54:04;100602.69;;;13.13;76.97
71149;BME280;59072;42.144;25.200;2022-11-15T09:56:32;100581.69;;;12.73;76.01
71149;BME280;59072;42.144;25.200;2022-11-15T10:04:21;100563.72;;;13.36;73.29
71149;BME280;59072;42.144;25.200;2022-11-15T10:06:54;100565.00;;;13.33;72.68
71149;BME280;59072;42.144;25.200;2022-11-15T10:09:33;100542.94;;;13.50;74.54
71149;BME280;59072;42.144;25.200;2022-11-15T10:12:01;100566.31;;;13.73;74.83
71149;BME280;59072;42.144;25.200;2022-11-15T10:14:28;100563.75;;;13.66;72.49
71149;BME280;59072;42.144;25.200;2022-11-15T10:20:02;100557.81;;;13.45;75.90
71149;BME280;59072;42.144;25.200;2022-11-15T10:22:45;100556.06;;;13.70;72.96
71149;BME280;59072;42.144;25.200;2022-11-15T10:27:57;100552.00;;;14.09;71.38
71149;BME280;59072;42.144;25.200;2022-11-15T10:30:30;100549.88;;;14.11;73.59
71149;BME280;59072;42.144;25.200;2022-11-15T10:32:56;100532.84;;;14.05;74.01
71149;BME280;59072;42.144;25.200;2022-11-15T10:35:29;100540.13;;;14.29;73.56
71149;BME280;59072;42.144;25.200;2022-11-15T10:38:06;100553.72;;;14.57;70.27
71149;BME280;59072;42.144;25.200;2022-11-15T10:40:32;100547.38;;;14.40;70.29
71149;BME280;59072;42.144;25.200;2022-11-15T10:45:36;100543.69;;;15.29;67.43
71149;BME280;59072;42.144;25.200;2022-11-15T10:50:39;100522.44;;;16.01;64.43
71149;BME280;59072;42.144;25.200;2022-11-15T10:53:18;100533.31;;;16.06;64.83
71149;BME280;59072;42.144;25.200;2022-11-15T10:55:47;100510.38;;;15.58;67.23
71149;BME280;59072;42.144;25.200;2022-11-15T11:01:12;100505.59;;;15.32;69.65
71149;BME280;59072;42.144;25.200;2022-11-15T11:03:39;100515.03;;;15.63;69.37
71149;BME280;59072;42.144;25.200;2022-11-15T11:06:11;100511.34;;;15.52;70.49
71149;BME280;59072;42.144;25.200;2022-11-15T11:08:37;100501.47;;;15.41;68.92
71149;BME280;59072;42.144;25.200;2022-11-15T11:11:04;100501.25;;;15.02;69.48
71149;BME280;59072;42.144;25.200;2022-11-15T11:18:51;100497.44;;;14.51;72.50
71149;BME280;59072;42.144;25.200;2022-11-15T11:21:51;100486.25;;;14.65;73.90
71149;BME280;59072;42.144;25.200;2022-11-15T11:30:06;100486.59;;;14.69;72.17
71149;BME280;59072;42.144;25.200;2022-11-15T11:32:48;100482.28;;;14.44;72.98
71149;BME280;59072;42.144;25.200;2022-11-15T11:35:28;100473.41;;;14.44;75.06
71149;BME280;59072;42.144;25.200;2022-11-15T11:38:15;100473.31;;;14.51;73.45
71149;BME280;59072;42.144;25.200;2022-11-15T11:43:51;100444.59;;;14.39;75.08
71149;BME280;59072;42.144;25.200;2022-11-15T11:49:10;100446.38;;;14.98;71.92
71149;BME280;59072;42.144;25.200;2022-11-15T11:52:00;100435.31;;;14.82;70.78
71149;BME280;59072;42.144;25.200;2022-11-15T11:55:23;100437.25;;;14.58;73.68
71149;BME280;59072;42.144;25.200;2022-11-15T12:00:22;100437.84;;;15.01;72.28
71149;BME280;59072;42.144;25.200;2022-11-15T12:05:46;100430.44;;;15.37;68.84
71149;BME280;59072;42.144;25.200;2022-11-15T12:11:10;100425.38;;;15.86;69.27
71149;BME280;59072;42.144;25.200;2022-11-15T12:13:38;100410.59;;;16.22;65.60
71149;BME280;59072;42.144;25.200;2022-11-15T12:16:31;100418.38;;;17.07;62.15
71149;BME280;59072;42.144;25.200;2022-11-15T12:19:03;100410.66;;;17.16;62.11
71149;BME280;59072;42.144;25.200;2022-11-15T12:21:37;100401.16;;;16.64;63.48
71149;BME280;59072;42.144;25.200;2022-11-15T12:24:11;100405.63;;;16.14;63.97
71149;BME280;59072;42.144;25.200;2022-11-15T12:26:45;100400.03;;;15.82;64.13
71149;BME280;59072;42.144;25.200;2022-11-15T12:29:36;100401.06;;;16.15;62.63
71149;BME280;59072;42.144;25.200;2022-11-15T12:32:03;100409.16;;;15.81;62.76
71149;BME280;59072;42.144;25.200;2022-11-15T12:34:37;100395.53;;;15.37;61.42
71149;BME280;59072;42.144;25.200;2022-11-15T12:45:01;100391.06;;;15.14;62.68
71149;BME280;59072;42.144;25.200;2022-11-15T12:47:26;100390.88;;;15.66;61.02
71149;BME280;59072;42.144;25.200;2022-11-15T12:49:52;100383.88;;;15.99;60.66
71149;BME280;59072;42.144;25.200;2022-11-15T12:52:18;100378.63;;;17.19;57.04
71149;BME280;59072;42.144;25.200;2022-11-15T12:54:55;100376.22;;;17.87;53.94
71149;BME280;59072;42.144;25.200;2022-11-15T12:57:28;100362.00;;;17.27;54.89
71149;BME280;59072;42.144;25.200;2022-11-15T13:17:54;100356.75;;;16.00;60.14
71149;BME280;59072;42.144;25.200;2022-11-15T13:20:23;100342.97;;;15.46;62.44
71149;BME280;59072;42.144;25.200;2022-11-15T13:23:08;100355.91;;;15.15;64.07
71149;BME280;59072;42.144;25.200;2022-11-15T13:33:18;100322.53;;;14.54;65.00
71149;BME280;59072;42.144;25.200;2022-11-15T13:36:06;100336.75;;;14.66;64.49
71149;BME280;59072;42.144;25.200;2022-11-15T13:38:36;100321.38;;;14.50;63.42
71149;BME280;59072;42.144;25.200;2022-11-15T13:41:21;100335.88;;;15.57;60.83
71149;BME280;59072;42.144;25.200;2022-11-15T13:43:49;100310.69;;;15.97;59.98
71149;BME280;59072;42.144;25.200;2022-11-15T13:46:44;100325.50;;;15.99;59.26
71149;BME280;59072;42.144;25.200;2022-11-15T13:49:09;100299.81;;;16.09;59.33
71149;BME280;59072;42.144;25.200;2022-11-15T13:51:46;100320.72;;;16.45;57.20
71149;BME280;59072;42.144;25.200;2022-11-15T13:56:41;100319.53;;;15.41;60.20
71149;BME280;59072;42.144;25.200;2022-11-15T13:59:27;100311.53;;;14.96;61.93
71149;BME280;59072;42.144;25.200;2022-11-15T14:01:58;100297.78;;;14.11;64.84
71149;BME280;59072;42.144;25.200;2022-11-15T14:04:27;100285.75;;;14.14;66.27
71149;BME280;59072;42.144;25.200;2022-11-15T14:06:59;100280.25;;;13.80;66.74
71149;BME280;59072;42.144;25.200;2022-11-15T14:09:35;100303.19;;;13.88;67.50
71149;BME280;59072;42.144;25.200;2022-11-15T14:12:20;100280.03;;;13.70;66.99
71149;BME280;59072;42.144;25.200;2022-11-15T14:14:47;100295.56;;;13.25;69.55
71149;BME280;59072;42.144;25.200;2022-11-15T14:19:53;100289.13;;;13.03;70.57
71149;BME280;59072;42.144;25.200;2022-11-15T14:25:03;100288.53;;;13.01;72.35
71149;BME280;59072;42.144;25.200;2022-11-15T14:27:31;100283.56;;;12.74;73.94
71149;BME280;59072;42.144;25.200;2022-11-15T14:29:56;100259.50;;;12.74;74.80
71149;BME280;59072;42.144;25.200;2022-11-15T14:32:30;100264.06;;;12.85;73.85
71149;BME280;59072;42.144;25.200;2022-11-15T14:35:02;100280.56;;;12.82;74.65
71149;BME280;59072;42.144;25.200;2022-11-15T14:37:31;100278.69;;;12.71;75.67
71149;BME280;59072;42.144;25.200;2022-11-15T14:39:59;100278.22;;;12.74;76.23
71149;BME280;59072;42.144;25.200;2022-11-15T14:42:25;100261.47;;;12.67;75.53
71149;BME280;59072;42.144;25.200;2022-11-15T14:44:51;100254.94;;;12.63;76.02
71149;BME280;59072;42.144;25.200;2022-11-15T14:47:17;100260.00;;;12.53;77.22
71149;BME280;59072;42.144;25.200;2022-11-15T14:49:42;100277.84;;;12.59;77.05